Observation data for Friona on 01/18/2019      Previous  Date  Next       Current Mesonet Observations  Soil Data  Daily Summary Page  Observations in Plain Language
KFAS 180600Z 21014KT 07/M04 A2999 RMK A01 T00661037  RH  048%=      5-min Rain = 0
KFAS 180605Z 21013KT 07/M04 A2999 RMK A01 T00671037  RH  047%=      5-min Rain = 0
KFAS 180610Z 21014KT 07/M04 A2999 RMK A01 T00681038  RH  047%=      5-min Rain = 0
KFAS 180615Z 21014KT 07/M04 A2999 RMK A01 T00701039  RH  046%=      5-min Rain = 0
KFAS 180620Z 22014KT 07/M04 A2999 RMK A01 T00691040  RH  046%=      5-min Rain = 0
KFAS 180625Z 22015G20KT 07/M04 A2998 RMK A01 T00711040  RH  045%=      5-min Rain = 0
KFAS 180630Z 22015G20KT 07/M04 A2998 RMK A01 T00741041  RH  044%=      5-min Rain = 0
KFAS 180635Z 22015G20KT 07/M04 A2998 RMK A01 T00741041  RH  044%=      5-min Rain = 0
KFAS 180640Z 22015KT 07/M04 A2998 RMK A01 T00741042  RH  044%=      5-min Rain = 0
KFAS 180645Z 22015KT 07/M04 A2997 RMK A01 T00721042  RH  044%=      5-min Rain = 0
KFAS 180650Z 22013G18KT 07/M04 A2997 RMK A01 T00711042  RH  045%=      5-min Rain = 0
KFAS 180655Z 23014KT 07/M04 A2996 RMK A01 T00701041  RH  045%=      5-min Rain = 0
KFAS 180700Z 22015KT 07/M04 A2996 RMK A01 T00721040  RH  045%=      5-min Rain = 0
KFAS 180705Z 22014G19KT 07/M04 A2995 RMK A01 T00741040  RH  045%=      5-min Rain = 0
KFAS 180710Z 22014KT 07/M04 A2995 RMK A01 T00721039  RH  045%=      5-min Rain = 0
KFAS 180715Z 22014KT 07/M04 A2994 RMK A01 T00711038  RH  046%=      5-min Rain = 0
KFAS 180720Z 22013KT 07/M04 A2994 RMK A01 T00661038  RH  048%=      5-min Rain = 0
KFAS 180725Z 22014G19KT 06/M04 A2994 RMK A01 T00641038  RH  048%=      5-min Rain = 0
KFAS 180730Z 23015KT 07/M04 A2994 RMK A01 T00681041  RH  046%=      5-min Rain = 0
KFAS 180735Z 24014KT 06/M04 A2994 RMK A01 T00631041  RH  047%=      5-min Rain = 0
KFAS 180740Z 24013KT 06/M04 A2994 RMK A01 T00571041  RH  049%=      5-min Rain = 0
KFAS 180745Z 23013KT 05/M04 A2994 RMK A01 T00521041  RH  051%=      5-min Rain = 0
KFAS 180750Z 23012KT 05/M04 A2993 RMK A01 T00501040  RH  052%=      5-min Rain = 0
KFAS 180755Z 23012KT 05/M04 A2993 RMK A01 T00511039  RH  052%=      5-min Rain = 0
KFAS 180800Z 22013KT 05/M04 A2993 RMK A01 T00521039  RH  052%=      5-min Rain = 0
KFAS 180805Z 23012KT 05/M04 A2993 RMK A01 T00521039  RH  052%=      5-min Rain = 0
KFAS 180810Z 23012KT 05/M04 A2993 RMK A01 T00521040  RH  052%=      5-min Rain = 0
KFAS 180815Z 23011KT 05/M04 A2993 RMK A01 T00501040  RH  052%=      5-min Rain = 0
KFAS 180820Z 23011KT 05/M04 A2993 RMK A01 T00491041  RH  053%=      5-min Rain = 0
KFAS 180825Z 23011KT 05/M04 A2993 RMK A01 T00491041  RH  052%=      5-min Rain = 0
KFAS 180830Z 23011KT 05/M04 A2993 RMK A01 T00511041  RH  052%=      5-min Rain = 0
KFAS 180835Z 23009KT 05/M04 A2993 RMK A01 T00501041  RH  052%=      5-min Rain = 0
KFAS 180840Z 22010KT 05/M04 A2993 RMK A01 T00511040  RH  052%=      5-min Rain = 0
KFAS 180845Z 23009KT 05/M04 A2993 RMK A01 T00531039  RH  052%=      5-min Rain = 0
KFAS 180850Z 24009KT 05/M04 A2992 RMK A01 T00511039  RH  052%=      5-min Rain = 0
KFAS 180855Z 24011KT 05/M04 A2992 RMK A01 T00511040  RH  052%=      5-min Rain = 0
KFAS 180900Z 23012KT 05/M04 A2992 RMK A01 T00501041  RH  052%=      5-min Rain = 0
KFAS 180905Z 23012KT 05/M04 A2992 RMK A01 T00511042  RH  052%=      5-min Rain = 0
KFAS 180910Z 23012KT 05/M04 A2991 RMK A01 T00521042  RH  051%=      5-min Rain = 0
KFAS 180915Z 23012KT 05/M04 A2992 RMK A01 T00521042  RH  051%=      5-min Rain = 0
KFAS 180920Z 23011KT 05/M04 A2991 RMK A01 T00501042  RH  052%=      5-min Rain = 0
KFAS 180925Z 23012KT 05/M04 A2991 RMK A01 T00521042  RH  051%=      5-min Rain = 0
KFAS 180930Z 23012KT 05/M04 A2991 RMK A01 T00521042  RH  051%=      5-min Rain = 0
KFAS 180935Z 23010KT 05/M04 A2991 RMK A01 T00501042  RH  051%=      5-min Rain = 0
KFAS 180940Z 24011KT 05/M04 A299 RMK A01 T00481042  RH  052%=      5-min Rain = 0
KFAS 180945Z 24012KT 05/M04 A299 RMK A01 T00501042  RH  052%=      5-min Rain = 0
KFAS 180950Z 24013KT 05/M04 A299 RMK A01 T00511042  RH  051%=      5-min Rain = 0
KFAS 180955Z 23013KT 05/M04 A299 RMK A01 T00521042  RH  051%=      5-min Rain = 0
KFAS 181000Z 23012KT 05/M04 A2989 RMK A01 T00521042  RH  051%=      5-min Rain = 0
KFAS 181005Z 23011KT 05/M04 A2989 RMK A01 T00531042  RH  051%=      5-min Rain = 0
KFAS 181010Z 22011KT 05/M04 A2988 RMK A01 T00511042  RH  051%=      5-min Rain = 0
KFAS 181015Z 22011KT 05/M04 A2988 RMK A01 T00521041  RH  051%=      5-min Rain = 0
KFAS 181020Z 23011KT 06/M04 A2987 RMK A01 T00551041  RH  050%=      5-min Rain = 0
KFAS 181025Z 23012G17KT 06/M04 A2987 RMK A01 T00601040  RH  049%=      5-min Rain = 0
KFAS 181030Z 22013KT 06/M04 A2987 RMK A01 T00631039  RH  048%=      5-min Rain = 0
KFAS 181035Z 22013G18KT 07/M04 A2986 RMK A01 T00661038  RH  048%=      5-min Rain = 0
KFAS 181040Z 22011KT 07/M04 A2985 RMK A01 T00671038  RH  047%=      5-min Rain = 0
KFAS 181045Z 22010KT 06/M04 A2985 RMK A01 T00641035  RH  049%=      5-min Rain = 0
KFAS 181050Z 22012KT 06/M04 A2985 RMK A01 T00631035  RH  050%=      5-min Rain = 0
KFAS 181055Z 22013KT 07/M03 A2985 RMK A01 T00651034  RH  049%=      5-min Rain = 0
KFAS 181100Z 23011KT 07/M03 A2984 RMK A01 T00651033  RH  050%=      5-min Rain = 0
KFAS 181105Z 23011G16KT 07/M03 A2984 RMK A01 T00661033  RH  050%=      5-min Rain = 0
KFAS 181110Z 24011KT 07/M03 A2984 RMK A01 T00651033  RH  050%=      5-min Rain = 0
KFAS 181115Z 24011KT 07/M03 A2984 RMK A01 T00651031  RH  050%=      5-min Rain = 0
KFAS 181120Z 24012KT 07/M03 A2984 RMK A01 T00651031  RH  051%=      5-min Rain = 0
KFAS 181125Z 24011KT 06/M03 A2984 RMK A01 T00631031  RH  051%=      5-min Rain = 0
KFAS 181130Z 25011KT 06/M03 A2984 RMK A01 T00611030  RH  052%=      5-min Rain = 0
KFAS 181135Z 24010KT 06/M03 A2984 RMK A01 T00591030  RH  053%=      5-min Rain = 0
KFAS 181140Z 24011KT 06/M03 A2984 RMK A01 T00601029  RH  053%=      5-min Rain = 0
KFAS 181145Z 23014KT 07/M03 A2983 RMK A01 T00651028  RH  052%=      5-min Rain = 0
KFAS 181150Z 23015KT 07/M03 A2983 RMK A01 T00711028  RH  050%=      5-min Rain = 0
KFAS 181155Z 22017G23KT 08/M03 A2983 RMK A01 T00751027  RH  049%=      5-min Rain = 0
KFAS 181200Z 22015KT 08/M03 A2982 RMK A01 T00751027  RH  049%=      5-min Rain = 0
KFAS 181205Z 22015G20KT 07/M03 A2982 RMK A01 T00731027  RH  049%=      5-min Rain = 0
KFAS 181210Z 22014KT 07/M03 A2982 RMK A01 T00711027  RH  050%=      5-min Rain = 0
KFAS 181215Z 22014KT 07/M03 A2982 RMK A01 T00741027  RH  049%=      5-min Rain = 0
KFAS 181220Z 23015KT 08/M03 A2981 RMK A01 T00761026  RH  049%=      5-min Rain = 0
KFAS 181225Z 23016G22KT 08/M03 A2981 RMK A01 T00771027  RH  048%=      5-min Rain = 0
KFAS 181230Z 23016KT 08/M03 A2981 RMK A01 T00771027  RH  048%=      5-min Rain = 0
KFAS 181235Z 23015KT 07/M03 A2981 RMK A01 T00741027  RH  049%=      5-min Rain = 0
KFAS 181240Z 23014G20KT 07/M03 A2981 RMK A01 T00711026  RH  050%=      5-min Rain = 0
KFAS 181245Z 23012KT 07/M03 A2981 RMK A01 T00691026  RH  051%=      5-min Rain = 0
KFAS 181250Z 23014KT 07/M03 A2981 RMK A01 T00691025  RH  051%=      5-min Rain = 0
KFAS 181255Z 23013KT 07/M03 A2981 RMK A01 T00691025  RH  052%=      5-min Rain = 0
KFAS 181300Z 24014KT 07/M02 A298 RMK A01 T00681024  RH  052%=      5-min Rain = 0
KFAS 181305Z 24013KT 07/M02 A298 RMK A01 T00681024  RH  052%=      5-min Rain = 0
KFAS 181310Z 24014KT 07/M02 A2981 RMK A01 T00671023  RH  053%=      5-min Rain = 0
KFAS 181315Z 24015KT 07/M02 A2981 RMK A01 T00681023  RH  053%=      5-min Rain = 0
KFAS 181320Z 25013KT 07/M02 A2981 RMK A01 T00671023  RH  053%=      5-min Rain = 0
KFAS 181325Z 25011G16KT 07/M02 A298 RMK A01 T00651022  RH  054%=      5-min Rain = 0
KFAS 181330Z 25012KT 06/M02 A298 RMK A01 T00641022  RH  055%=      5-min Rain = 0
KFAS 181335Z 25012KT 06/M02 A2981 RMK A01 T00641022  RH  055%=      5-min Rain = 0
KFAS 181340Z 24011KT 07/M02 A2981 RMK A01 T00651021  RH  055%=      5-min Rain = 0
KFAS 181345Z 24012KT 07/M02 A2981 RMK A01 T00651021  RH  054%=      5-min Rain = 0
KFAS 181350Z 24013KT 07/M02 A2981 RMK A01 T00661021  RH  054%=      5-min Rain = 0
KFAS 181355Z 24014KT 07/M02 A2981 RMK A01 T00671021  RH  054%=      5-min Rain = 0
KFAS 181400Z 24014KT 07/M02 A2981 RMK A01 T00671021  RH  054%=      5-min Rain = 0
KFAS 181405Z 24014KT 07/M02 A2981 RMK A01 T00671021  RH  054%=      5-min Rain = 0
KFAS 181410Z 25014KT 07/M02 A2981 RMK A01 T00681020  RH  054%=      5-min Rain = 0
KFAS 181415Z 25013KT 07/M02 A2981 RMK A01 T00681020  RH  054%=      5-min Rain = 0
KFAS 181420Z 24013KT 07/M02 A2981 RMK A01 T00671019  RH  054%=      5-min Rain = 0
KFAS 181425Z 26012KT 07/M02 A2981 RMK A01 T00691018  RH  054%=      5-min Rain = 0
KFAS 181430Z 25011KT 07/M02 A2981 RMK A01 T00671017  RH  055%=      5-min Rain = 0
KFAS 181435Z 26011KT 06/M02 A2981 RMK A01 T00641017  RH  057%=      5-min Rain = 0
KFAS 181440Z 26011KT 06/M02 A2981 RMK A01 T00641016  RH  057%=      5-min Rain = 0
KFAS 181445Z 26012KT 07/M02 A2981 RMK A01 T00671015  RH  056%=      5-min Rain = 0
KFAS 181450Z 25012KT 07/M01 A2981 RMK A01 T00711014  RH  055%=      5-min Rain = 0
KFAS 181455Z 25012KT 08/M01 A2981 RMK A01 T00761012  RH  054%=      5-min Rain = 0
KFAS 181500Z 25011KT 08/M01 A2981 RMK A01 T00781011  RH  054%=      5-min Rain = 0
KFAS 181505Z 25015G22KT 09/M01 A2981 RMK A01 T00871012  RH  050%=      5-min Rain = 0
KFAS 181510Z 24015KT 09/M01 A2981 RMK A01 T00941012  RH  048%=      5-min Rain = 0
KFAS 181515Z 24016KT 10/M01 A298 RMK A01 T00981011  RH  047%=      5-min Rain = 0
KFAS 181520Z 24017KT 10/M01 A298 RMK A01 T01011011  RH  046%=      5-min Rain = 0
KFAS 181525Z 24015G20KT 11/M01 A298 RMK A01 T01051010  RH  045%=      5-min Rain = 0
KFAS 181530Z 25016G23KT 11/M01 A298 RMK A01 T01061008  RH  045%=      5-min Rain = 0
KFAS 181535Z 25015G21KT 11/M01 A298 RMK A01 T01091005  RH  046%=      5-min Rain = 0
KFAS 181540Z 26018G24KT 11/00 A298 RMK A01 T011200-0  RH  046%=      5-min Rain = 0
KFAS 181545Z 26018G25KT 12/00 A298 RMK A01 T01170004  RH  046%=      5-min Rain = 0
KFAS 181550Z 27020KT 12/01 A2979 RMK A01 T01220008  RH  046%=      5-min Rain = 0
KFAS 181555Z 27019G29KT 13/01 A2979 RMK A01 T01300011  RH  045%=      5-min Rain = 0
KFAS 181600Z 27021G33KT 13/01 A2979 RMK A01 T01320014  RH  045%=      5-min Rain = 0
KFAS 181605Z 26021G29KT 13/02 A2979 RMK A01 T01280016  RH  047%=      5-min Rain = 0
KFAS 181610Z 27020G28KT 13/02 A2978 RMK A01 T01320018  RH  047%=      5-min Rain = 0
KFAS 181615Z 27020G29KT 14/02 A2978 RMK A01 T01360020  RH  046%=      5-min Rain = 0
KFAS 181620Z 26023G32KT 14/02 A2978 RMK A01 T01380020  RH  046%=      5-min Rain = 0
KFAS 181625Z 26026G39KT 14/02 A2977 RMK A01 T01420020  RH  044%=      5-min Rain = 0
KFAS 181630Z 26030G38KT 14/02 A2976 RMK A01 T01430019  RH  044%=      5-min Rain = 0
KFAS 181635Z 26027G39KT 15/02 A2976 RMK A01 T01460018  RH  043%=      5-min Rain = 0
KFAS 181640Z 26032G39KT 15/02 A2977 RMK A01 T01470017  RH  042%=      5-min Rain = 0
KFAS 181645Z 26031G42KT 15/02 A2977 RMK A01 T01460018  RH  043%=      5-min Rain = 0
KFAS 181650Z 26032G38KT 15/02 A2976 RMK A01 T01480018  RH  042%=      5-min Rain = 0
KFAS 181655Z 26033G44KT 15/02 A2976 RMK A01 T01470017  RH  042%=      5-min Rain = 0
KFAS 181700Z 26029G39KT 15/02 A2976 RMK A01 T01500017  RH  041%=      5-min Rain = 0
KFAS 181705Z 25034G44KT 15/01 A2976 RMK A01 T01490014  RH  040%=      5-min Rain = 0
KFAS 181710Z 25032G39KT 15/01 A2976 RMK A01 T01480014  RH  041%=      5-min Rain = 0
KFAS 181715Z 25031G38KT 15/01 A2976 RMK A01 T01490013  RH  040%=      5-min Rain = 0
KFAS 181720Z 25029G35KT 15/01 A2976 RMK A01 T01500012  RH  040%=      5-min Rain = 0
KFAS 181725Z 25029G37KT 15/01 A2976 RMK A01 T01500010  RH  039%=      5-min Rain = 0
KFAS 181730Z 25029G36KT 15/01 A2975 RMK A01 T01510009  RH  038%=      5-min Rain = 0
KFAS 181735Z 26028G37KT 15/01 A2975 RMK A01 T01510008  RH  038%=      5-min Rain = 0
KFAS 181740Z 26028G37KT 15/01 A2975 RMK A01 T01530006  RH  037%=      5-min Rain = 0
KFAS 181745Z 27028G36KT 15/01 A2975 RMK A01 T01540005  RH  037%=      5-min Rain = 0
KFAS 181750Z 26032G43KT 15/01 A2975 RMK A01 T01530005  RH  037%=      5-min Rain = 0
KFAS 181755Z 26030G38KT 15/01 A2974 RMK A01 T01520008  RH  038%=      5-min Rain = 0
KFAS 181800Z 26030G39KT 15/01 A2974 RMK A01 T01520009  RH  038%=      5-min Rain = 0
KFAS 181805Z 26028G36KT 15/01 A2974 RMK A01 T01520012  RH  039%=      5-min Rain = 0
KFAS 181810Z 26032G41KT 15/01 A2973 RMK A01 T01530010  RH  038%=      5-min Rain = 0
KFAS 181815Z 26027G38KT 16/00 A2973 RMK A01 T01560003  RH  036%=      5-min Rain = 0
KFAS 181820Z 26027G38KT 16/00 A2972 RMK A01 T015900-0  RH  034%=      5-min Rain = 0
KFAS 181825Z 26029G39KT 16/M01 A2971 RMK A01 T01601007  RH  032%=      5-min Rain = 0
KFAS 181830Z 26027G40KT 16/M01 A2971 RMK A01 T01611006  RH  032%=      5-min Rain = 0
KFAS 181835Z 26029G38KT 16/M00 A2971 RMK A01 T01621004  RH  032%=      5-min Rain = 0
KFAS 181840Z 26029G40KT 16/M01 A297 RMK A01 T01611005  RH  033%=      5-min Rain = 0
KFAS 181845Z 26027G37KT 16/M00 A297 RMK A01 T01611003  RH  033%=      5-min Rain = 0
KFAS 181850Z 25031G40KT 16/M01 A2969 RMK A01 T01631006  RH  032%=      5-min Rain = 0
KFAS 181855Z 27028G36KT 16/M01 A2969 RMK A01 T01641012  RH  030%=      5-min Rain = 0
KFAS 181900Z 25028G37KT 16/M01 A2969 RMK A01 T01641013  RH  030%=      5-min Rain = 0
KFAS 181905Z 25027G35KT 17/M01 A2968 RMK A01 T01661011  RH  030%=      5-min Rain = 0
KFAS 181910Z 26026G35KT 16/M01 A2968 RMK A01 T01621012  RH  031%=      5-min Rain = 0
KFAS 181915Z 25027G33KT 16/M01 A2968 RMK A01 T01601009  RH  032%=      5-min Rain = 0
KFAS 181920Z 26028G37KT 16/M01 A2968 RMK A01 T01581008  RH  032%=      5-min Rain = 0
KFAS 181925Z 26025G37KT 16/M00 A2967 RMK A01 T01571003  RH  034%=      5-min Rain = 0
KFAS 181930Z 26027G35KT 17/M01 A2967 RMK A01 T01651006  RH  032%=      5-min Rain = 0
KFAS 181935Z 26026G33KT 17/M01 A2967 RMK A01 T01701007  RH  030%=      5-min Rain = 0
KFAS 181940Z 26027G37KT 16/M01 A2966 RMK A01 T01641013  RH  030%=      5-min Rain = 0
KFAS 181945Z 27024G35KT 16/M01 A2966 RMK A01 T01641012  RH  030%=      5-min Rain = 0
KFAS 181950Z 27026G34KT 17/M01 A2965 RMK A01 T01681013  RH  029%=      5-min Rain = 0
KFAS 181955Z 27026G32KT 17/M03 A2964 RMK A01 T01671028  RH  026%=      5-min Rain = 0
KFAS 182000Z 27026G34KT 17/M04 A2964 RMK A01 T01661040  RH  024%=      5-min Rain = 0
KFAS 182005Z 27024G32KT 17/M03 A2964 RMK A01 T01681031  RH  026%=      5-min Rain = 0
KFAS 182010Z 26025G31KT 17/M03 A2964 RMK A01 T01681025  RH  027%=      5-min Rain = 0
KFAS 182015Z 27025G32KT 17/M03 A2964 RMK A01 T01711028  RH  026%=      5-min Rain = 0
KFAS 182020Z 26023G32KT 16/M02 A2965 RMK A01 T01621024  RH  028%=      5-min Rain = 0
KFAS 182025Z 27023G30KT 16/M02 A2964 RMK A01 T01641020  RH  029%=      5-min Rain = 0
KFAS 182030Z 26023G32KT 17/M03 A2964 RMK A01 T01681025  RH  027%=      5-min Rain = 0
KFAS 182035Z 26024G31KT 17/M03 A2963 RMK A01 T01731031  RH  025%=      5-min Rain = 0
KFAS 182040Z 26025G34KT 17/M04 A2963 RMK A01 T01721041  RH  023%=      5-min Rain = 0
KFAS 182045Z 25025G33KT 17/M05 A2963 RMK A01 T01711045  RH  023%=      5-min Rain = 0
KFAS 182050Z 26026G34KT 16/M06 A2963 RMK A01 T01611055  RH  022%=      5-min Rain = 0
KFAS 182055Z 26025G32KT 16/M06 A2963 RMK A01 T01561058  RH  022%=      5-min Rain = 0
KFAS 182100Z 27025G32KT 17/M06 A2963 RMK A01 T01701055  RH  021%=      5-min Rain = 0
KFAS 182105Z 26027G37KT 18/M05 A2963 RMK A01 T01751050  RH  021%=      5-min Rain = 0
KFAS 182110Z 26028G38KT 16/M05 A2963 RMK A01 T01631050  RH  023%=      5-min Rain = 0
KFAS 182115Z 26028G36KT 16/M05 A2964 RMK A01 T01571049  RH  024%=      5-min Rain = 0
KFAS 182120Z 26027G34KT 16/M05 A2964 RMK A01 T01551052  RH  024%=      5-min Rain = 0
KFAS 182125Z 27027G37KT 15/M06 A2965 RMK A01 T01541061  RH  022%=      5-min Rain = 0
KFAS 182130Z 26028G37KT 15/M06 A2965 RMK A01 T01501062  RH  023%=      5-min Rain = 0
KFAS 182135Z 26028G35KT 15/M06 A2965 RMK A01 T01461057  RH  024%=      5-min Rain = 0
KFAS 182140Z 26025G32KT 14/M05 A2965 RMK A01 T01421053  RH  026%=      5-min Rain = 0
KFAS 182145Z 26022G30KT 14/M06 A2965 RMK A01 T01411058  RH  025%=      5-min Rain = 0
KFAS 182150Z 27022G30KT 14/M06 A2965 RMK A01 T01411062  RH  024%=      5-min Rain = 0
KFAS 182155Z 27022G30KT 14/M06 A2965 RMK A01 T01411058  RH  025%=      5-min Rain = 0
KFAS 182200Z 28022G29KT 14/M05 A2965 RMK A01 T01401052  RH  026%=      5-min Rain = 0
KFAS 182205Z 28023G29KT 14/M07 A2966 RMK A01 T01391066  RH  024%=      5-min Rain = 0
KFAS 182210Z 28026G34KT 14/M07 A2967 RMK A01 T01381067  RH  023%=      5-min Rain = 0
KFAS 182215Z 29026G34KT 14/M06 A2967 RMK A01 T01371062  RH  025%=      5-min Rain = 0
KFAS 182220Z 29025G34KT 13/M06 A2967 RMK A01 T01341059  RH  026%=      5-min Rain = 0
KFAS 182225Z 29024G33KT 14/M05 A2967 RMK A01 T01361054  RH  026%=      5-min Rain = 0
KFAS 182230Z 28023G30KT 14/M05 A2967 RMK A01 T01441049  RH  026%=      5-min Rain = 0
KFAS 182235Z 28026G35KT 14/M05 A2967 RMK A01 T01411046  RH  027%=      5-min Rain = 0
KFAS 182240Z 27024G31KT 14/M05 A2967 RMK A01 T01381046  RH  028%=      5-min Rain = 0
KFAS 182245Z 28023G30KT 14/M05 A2967 RMK A01 T01381048  RH  027%=      5-min Rain = 0
KFAS 182250Z 28023G30KT 14/M05 A2967 RMK A01 T01381050  RH  027%=      5-min Rain = 0
KFAS 182255Z 28022G28KT 14/M05 A2967 RMK A01 T01371048  RH  027%=      5-min Rain = 0
KFAS 182300Z 29023G29KT 14/M05 A2967 RMK A01 T01371047  RH  028%=      5-min Rain = 0
KFAS 182305Z 29022G30KT 14/M05 A2967 RMK A01 T01361046  RH  028%=      5-min Rain = 0
KFAS 182310Z 29025G33KT 14/M05 A2968 RMK A01 T01361046  RH  028%=      5-min Rain = 0
KFAS 182315Z 32026G34KT 13/M03 A2969 RMK A01 T01261029  RH  034%=      5-min Rain = 0
KFAS 182320Z 32029G40KT 11/M02 A297 RMK A01 T01131020  RH  040%=      5-min Rain = 0
KFAS 182325Z 34032G42KT 11/M01 A297 RMK A01 T01071012  RH  044%=      5-min Rain = 0
KFAS 182330Z 34034G42KT 10/00 A2971 RMK A01 T00970004  RH  053%=      5-min Rain = 0
KFAS 182335Z 33034G46KT 09/01 A2972 RMK A01 T00860012  RH  060%=      5-min Rain = 0
KFAS 182340Z 34034G45KT 07/01 A2973 RMK A01 T00680014  RH  069%=      5-min Rain = 0
KFAS 182345Z 34032G41KT 06/02 A2974 RMK A01 T00630016  RH  073%=      5-min Rain = 0
KFAS 182350Z 34032G40KT 06/02 A2975 RMK A01 T00620017  RH  074%=      5-min Rain = 0
KFAS 182355Z 34031G39KT 06/02 A2976 RMK A01 T00620016  RH  073%=      5-min Rain = 0
KFAS 190000Z 34031G39KT 06/02 A2977 RMK A01 T00620016  RH  074%=      5-min Rain = 0
KFAS 190005Z 34027G34KT 06/02 A2978 RMK A01 T00580021  RH  078%=      5-min Rain = 0
KFAS 190010Z 34028G35KT 05/02 A2979 RMK A01 T00530024  RH  083%=      5-min Rain = 0
KFAS 190015Z 33028G34KT 05/03 A298 RMK A01 T00500025  RH  085%=      5-min Rain = 0
KFAS 190020Z 33026G33KT 05/03 A2981 RMK A01 T00470025  RH  087%=      5-min Rain = 0
KFAS 190025Z 33025G31KT 04/03 A2982 RMK A01 T00440025  RH  089%=      5-min Rain = 0
KFAS 190030Z 33025G32KT 04/03 A2983 RMK A01 T00420025  RH  090%=      5-min Rain = 0
KFAS 190035Z 34023G32KT 04/03 A2984 RMK A01 T00410026  RH  091%=      5-min Rain = 0.01
KFAS 190040Z 33026G34KT 04/02 A2984 RMK A01 T00380024  RH  092%=      5-min Rain = 0
KFAS 190045Z 34028G35KT 03/02 A2984 RMK A01 T00340020  RH  092%=      5-min Rain = 0.01
KFAS 190050Z 34024G31KT 03/02 A2985 RMK A01 T00330020  RH  093%=      5-min Rain = 0.01
KFAS 190055Z 34022G32KT 03/02 A2986 RMK A01 T00320021  RH  094%=      5-min Rain = 0
KFAS 190100Z 34028G35KT 03/02 A2986 RMK A01 T00320020  RH  094%=      5-min Rain = 0
KFAS 190105Z 34023G29KT 03/02 A2986 RMK A01 T00320021  RH  094%=      5-min Rain = 0
KFAS 190110Z 34023G31KT 03/02 A2987 RMK A01 T00320022  RH  094%=      5-min Rain = 0
KFAS 190115Z 34023G30KT 03/02 A2987 RMK A01 T00320021  RH  094%=      5-min Rain = 0
KFAS 190120Z 34022G29KT 03/02 A2987 RMK A01 T00310020  RH  094%=      5-min Rain = 0
KFAS 190125Z 34022G28KT 03/02 A2988 RMK A01 T00300019  RH  094%=      5-min Rain = 0
KFAS 190130Z 34023G30KT 03/02 A2988 RMK A01 T00290017  RH  093%=      5-min Rain = 0
KFAS 190135Z 34023G30KT 03/02 A2989 RMK A01 T00270015  RH  093%=      5-min Rain = 0
KFAS 190140Z 34023G29KT 03/02 A2989 RMK A01 T00260015  RH  094%=      5-min Rain = 0
KFAS 190145Z 34022G27KT 03/02 A299 RMK A01 T00250015  RH  094%=      5-min Rain = 0
KFAS 190150Z 34021G28KT 03/02 A299 RMK A01 T00250015  RH  094%=      5-min Rain = 0
KFAS 190155Z 35021G27KT 03/02 A2991 RMK A01 T00250015  RH  095%=      5-min Rain = 0
KFAS 190200Z 35018G24KT 03/02 A2991 RMK A01 T00250016  RH  095%=      5-min Rain = 0
KFAS 190205Z 35019G26KT 03/02 A2992 RMK A01 T00250016  RH  095%=      5-min Rain = 0.01
KFAS 190210Z 35022G32KT 02/02 A2992 RMK A01 T00240015  RH  095%=      5-min Rain = 0
KFAS 190215Z 35023G30KT 02/01 A2993 RMK A01 T00220013  RH  095%=      5-min Rain = 0
KFAS 190220Z 35026G35KT 02/01 A2993 RMK A01 T00190009  RH  094%=      5-min Rain = 0
KFAS 190225Z 35025G31KT 02/01 A2994 RMK A01 T00160006  RH  095%=      5-min Rain = 0
KFAS 190230Z 35027G37KT 01/00 A2995 RMK A01 T00110002  RH  095%=      5-min Rain = 0
KFAS 190235Z 35028G37KT 01/M00 A2995 RMK A01 T00061002  RH  095%=      5-min Rain = 0
KFAS 190240Z 35026G34KT 00/M00 A2996 RMK A01 T00041003  RH  096%=      5-min Rain = 0
KFAS 190245Z 35021G27KT 00/M00 A2997 RMK A01 T00031003  RH  097%=      5-min Rain = 0
KFAS 190250Z 35030G41KT 00/M00 A2997 RMK A01 T00021003  RH  097%=      5-min Rain = 0.01
KFAS 190255Z 35031G44KT 00/M01 A2998 RMK A01 T00011005  RH  097%=      5-min Rain = 0
KFAS 190300Z 36029G36KT 00/01 A2998 RMK A01 T00-000-6  RH  097%=      5-min Rain = 0
KFAS 190305Z 36029G37KT M00/M01 A2998 RMK A01 T10011006  RH  098%=      5-min Rain = 0
KFAS 190310Z 36026G34KT M00/M01 A2999 RMK A01 T10011006  RH  098%=      5-min Rain = 0
KFAS 190315Z 36024G30KT M00/M01 A2999 RMK A01 T10021006  RH  098%=      5-min Rain = 0
KFAS 190320Z 35021G29KT M00/M01 A30 RMK A01 T10021006  RH  098%=      5-min Rain = 0
KFAS 190325Z 35021G26KT M00/M01 A30 RMK A01 T10021005  RH  099%=      5-min Rain = 0
KFAS 190330Z 35020G27KT M00/M01 A30 RMK A01 T10021005  RH  099%=      5-min Rain = 0
KFAS 190335Z 35018G23KT M00/M00 A3001 RMK A01 T10021004  RH  099%=      5-min Rain = 0
KFAS 190340Z 35019G26KT M00/M00 A3001 RMK A01 T10021004  RH  099%=      5-min Rain = 0
KFAS 190345Z 35017KT M00/M00 A3002 RMK A01 T10021004  RH  100%=      5-min Rain = 0
KFAS 190350Z 35018G24KT M00/M00 A3002 RMK A01 T10011003  RH  100%=      5-min Rain = 0
KFAS 190355Z 34017G23KT M00/M00 A3002 RMK A01 T10011003  RH  100%=      5-min Rain = 0
KFAS 190400Z 35019G27KT M00/M00 A3003 RMK A01 T10011003  RH  100%=      5-min Rain = 0
KFAS 190405Z 35019G25KT M00/M00 A3003 RMK A01 T10011003  RH  100%=      5-min Rain = 0
KFAS 190410Z 35020G25KT M00/M00 A3003 RMK A01 T10011003  RH  100%=      5-min Rain = 0
KFAS 190415Z 35019KT M00/M00 A3004 RMK A01 T10011003  RH  100%=      5-min Rain = 0
KFAS 190420Z 35019G24KT M00/M00 A3004 RMK A01 T10011003  RH  100%=      5-min Rain = 0
KFAS 190425Z 35021G27KT M00/M00 A3004 RMK A01 T10011003  RH  100%=      5-min Rain = 0
KFAS 190430Z 35020G26KT M00/M00 A3005 RMK A01 T10011003  RH  100%=      5-min Rain = 0
KFAS 190435Z 36017G23KT M00/M00 A3005 RMK A01 T10021003  RH  100%=      5-min Rain = 0
KFAS 190440Z 36018G24KT M00/M00 A3005 RMK A01 T10021003  RH  100%=      5-min Rain = 0
KFAS 190445Z 35018G25KT M00/M00 A3006 RMK A01 T10021004  RH  100%=      5-min Rain = 0
KFAS 190450Z 35019G27KT M00/M00 A3006 RMK A01 T10021004  RH  100%=      5-min Rain = 0
KFAS 190455Z 35020G26KT M00/M00 A3006 RMK A01 T10021003  RH  100%=      5-min Rain = 0
KFAS 190500Z 35022G29KT M00/M00 A3006 RMK A01 T10031004  RH  100%=      5-min Rain = 0
KFAS 190505Z 35026G35KT M00/M01 A3007 RMK A01 T10041006  RH  100%=      5-min Rain = 0
KFAS 190510Z 35025G30KT M01/M01 A3007 RMK A01 T10061007  RH  100%=      5-min Rain = 0
KFAS 190515Z 35025KT M01/M01 A3008 RMK A01 T10061008  RH  100%=      5-min Rain = 0
KFAS 190520Z 35022G29KT M01/M01 A3008 RMK A01 T10061008  RH  100%=      5-min Rain = 0
KFAS 190525Z 35025G31KT M01/M01 A3008 RMK A01 T10071009  RH  100%=      5-min Rain = 0
KFAS 190530Z 36025G33KT M01/M01 A3008 RMK A01 T10101011  RH  100%=      5-min Rain = 0
KFAS 190535Z 36024G29KT M01/M01 A3008 RMK A01 T10111012  RH  100%=      5-min Rain = 0
KFAS 190540Z 35020G25KT M01/M01 A3009 RMK A01 T10111013  RH  100%=      5-min Rain = 0
KFAS 190545Z 35019G24KT M01/M01 A3009 RMK A01 T10111013  RH  100%=      5-min Rain = 0
KFAS 190550Z 35025G30KT M01/M01 A3009 RMK A01 T10111013  RH  100%=      5-min Rain = 0
KFAS 190555Z 35026G32KT M01/M01 A3009 RMK A01 T10121013  RH  100%=      5-min Rain = 0

Page generated in 0.0091 seconds.